Language: 


Des rapports , des résumés tant et plus, au choix de chacun....


Données Historiques de Météogheer
Journalier Rapport pour Février 6, 2017 Unitée:  Les deux    Impériale   Métrique
Suivant Jour »
Journalier Hebdomadaire Mensuel Annuel Sur mesure
  Max: Min: Moyenne:
Température: 49.5 °F /  9.7 °C 37 °F /  2.8 °C 42.6 °F /  5.9 °C
Point de rosée: 46.9 °F /  8.3 °C 36.1 °F /  2.3 °C 41.2 °F /  5.1 °C
Humidité: 98% 81% 95%
Vent: 12.1mph /  19.5km/h - 1.9mph /  3km/h
Rafales: 12.8mph /  20.6km/h - -
Vent- - WSW
Pression: 30.1 in /  1018.8 hPa 29.8 in /  1009.0 hPa -
Pluie: 0.04 in /  1.0 mm    
Historical Graphs
 
 
Données tabulaires pour Février 6, 2017
Heure Température Point de rosée Pression Vent Vent Rafales Humidité Pluie Taux (Horaire) Conditions
00:00 41.4 °F /  5.2 °C 40.8 °F /  4.9 °C 29.8in /  1009.0hPa North 5.8mph /  9.3km/h 10.1mph /  16.3km/h 98% 0.07in /  1.8mm
00:05 41.4 °F /  5.2 °C 40.8 °F /  4.9 °C 29.8in /  1009.0hPa North 8.1mph /  13.0km/h 12.8mph /  20.6km/h 98% 0.06in /  1.5mm
00:10 41.4 °F /  5.2 °C 40.8 °F /  4.9 °C 29.8in /  1010.0hPa North 8.7mph /  14.0km/h 12.8mph /  20.6km/h 98% 0.07in /  1.8mm
00:15 41.4 °F /  5.2 °C 40.8 °F /  4.9 °C 29.8in /  1010.0hPa NNE 12.1mph /  19.5km/h 12.3mph /  19.8km/h 98% 0.06in /  1.5mm
00:20 41.4 °F /  5.2 °C 40.8 °F /  4.9 °C 29.8in /  1010.0hPa NNE 10.7mph /  17.2km/h 12.1mph /  19.5km/h 98% 0.07in /  1.8mm
00:25 41.4 °F /  5.2 °C 40.8 °F /  4.9 °C 29.8in /  1010.0hPa NNE 4.3mph /  6.9km/h 12.1mph /  19.5km/h 98% 0.07in /  1.8mm
00:30 41.4 °F /  5.2 °C 40.8 °F /  4.9 °C 29.8in /  1010.0hPa NNE 4.3mph /  6.9km/h 10.7mph /  17.2km/h 98% 0.06in /  1.5mm
00:35 41.4 °F /  5.2 °C 40.8 °F /  4.9 °C 29.8in /  1010.0hPa NNE 4.3mph /  6.9km/h 4.3mph /  6.9km/h 98% 0.05in /  1.3mm
00:40 41.4 °F /  5.2 °C 40.8 °F /  4.9 °C 29.8in /  1010.0hPa NE 7.6mph /  12.2km/h 7.6mph /  12.2km/h 98% 0.06in /  1.5mm
00:45 41.4 °F /  5.2 °C 40.8 °F /  4.9 °C 29.8in /  1010.0hPa NE 7.6mph /  12.2km/h 7.6mph /  12.2km/h 98% 0.04in /  1.0mm
00:50 41.4 °F /  5.2 °C 40.8 °F /  4.9 °C 29.8in /  1010.0hPa NNE 6mph /  9.7km/h 7.6mph /  12.2km/h 98% 0.04in /  1.0mm
00:55 41.4 °F /  5.2 °C 40.8 °F /  4.9 °C 29.9in /  1011.1hPa NNE 6mph /  9.7km/h 7.6mph /  12.2km/h 98% 0.04in /  1.0mm
01:00 41.4 °F /  5.2 °C 40.8 °F /  4.9 °C 29.9in /  1011.1hPa North 8.1mph /  13.0km/h 8.1mph /  13.0km/h 98% 0.03in /  0.8mm
01:05 41.4 °F /  5.2 °C 40.8 °F /  4.9 °C 29.9in /  1011.1hPa NNW 2.7mph /  4.3km/h 10.3mph /  16.6km/h 98% 0.03in /  0.8mm
01:10 41.2 °F /  5.1 °C 40.6 °F /  4.8 °C 29.9in /  1011.1hPa NNW 5.8mph /  9.3km/h 10.3mph /  16.6km/h 98% 0.02in /  0.5mm
01:15 41.2 °F /  5.1 °C 40.6 °F /  4.8 °C 29.9in /  1011.1hPa NNE 4.9mph /  7.9km/h 6.3mph /  10.1km/h 98% 0.02in /  0.5mm
01:20 41.2 °F /  5.1 °C 40.6 °F /  4.8 °C 29.9in /  1011.1hPa NNW 1.3mph /  2.1km/h 6.3mph /  10.1km/h 98% 0.01in /  0.3mm
01:25 41.2 °F /  5.1 °C 40.6 °F /  4.8 °C 29.9in /  1011.1hPa North 4.9mph /  7.9km/h 7.6mph /  12.2km/h 98% 0.01in /  0.3mm
01:30 41.2 °F /  5.1 °C 40.6 °F /  4.8 °C 29.9in /  1011.1hPa NNE 3.8mph /  6.1km/h 7.6mph /  12.2km/h 98% 0.01in /  0.3mm
01:35 41.2 °F /  5.1 °C 40.6 °F /  4.8 °C 29.9in /  1011.1hPa NNW 4.9mph /  7.9km/h 4.9mph /  7.9km/h 98% 0.01in /  0.3mm
01:40 41.2 °F /  5.1 °C 40.6 °F /  4.8 °C 29.8in /  1010.0hPa North 7.2mph /  11.6km/h 7.2mph /  11.6km/h 98% 0in /  0.0mm
01:45 41.2 °F /  5.1 °C 40.6 °F /  4.8 °C 29.8in /  1010.0hPa North 7.2mph /  11.6km/h 7.2mph /  11.6km/h 98% 0in /  0.0mm
01:50 41.2 °F /  5.1 °C 40.6 °F /  4.8 °C 29.8in /  1010.0hPa North 3.8mph /  6.1km/h 7.4mph /  11.9km/h 98% 0in /  0.0mm
01:55 41.2 °F /  5.1 °C 40.6 °F /  4.8 °C 29.9in /  1011.1hPa North 3.8mph /  6.1km/h 7.4mph /  11.9km/h 98% 0in /  0.0mm
02:02 41.2 °F /  5.1 °C 40.6 °F /  4.8 °C 29.9in /  1011.1hPa North 5.8mph /  9.3km/h 6.3mph /  10.1km/h 98% 0in /  0.0mm
02:07 41.2 °F /  5.1 °C 40.6 °F /  4.8 °C 29.8in /  1010.0hPa North 3.4mph /  5.5km/h 5.8mph /  9.3km/h 98% 0in /  0.0mm
02:12 41.2 °F /  5.1 °C 40.6 °F /  4.8 °C 29.8in /  1010.0hPa North 3.8mph /  6.1km/h 7.4mph /  11.9km/h 98% 0in /  0.0mm
02:17 41.2 °F /  5.1 °C 40.6 °F /  4.8 °C 29.8in /  1010.0hPa North 3.8mph /  6.1km/h 10.5mph /  16.9km/h 98% 0.01in /  0.3mm
02:22 41.2 °F /  5.1 °C 40.6 °F /  4.8 °C 29.9in /  1011.1hPa North 3.1mph /  5.0km/h 10.5mph /  16.9km/h 98% 0.01in /  0.3mm
02:27 41 °F /  5.0 °C 40.5 °F /  4.7 °C 29.9in /  1011.1hPa North 6.5mph /  10.5km/h 8.7mph /  14.0km/h 98% 0.01in /  0.3mm
02:32 41 °F /  5.0 °C 40.5 °F /  4.7 °C 29.9in /  1011.1hPa NNE 4.3mph /  6.9km/h 7.8mph /  12.6km/h 98% 0.01in /  0.3mm
02:37 40.8 °F /  4.9 °C 40.3 °F /  4.6 °C 29.9in /  1011.1hPa NNE 4mph /  6.4km/h 7.8mph /  12.6km/h 98% 0.01in /  0.3mm
02:42 40.8 °F /  4.9 °C 40.3 °F /  4.6 °C 29.9in /  1011.1hPa NE 2.5mph /  4.0km/h 7.4mph /  11.9km/h 98% 0.01in /  0.3mm
02:47 40.8 °F /  4.9 °C 40.3 °F /  4.6 °C 29.9in /  1011.1hPa Calm   6.5mph /  10.5km/h 98% 0.01in /  0.3mm
02:52 40.6 °F /  4.8 °C 40.1 °F /  4.5 °C 29.9in /  1011.1hPa North 6.3mph /  10.1km/h 6.5mph /  10.5km/h 98% 0.01in /  0.3mm
02:57 40.6 °F /  4.8 °C 40.1 °F /  4.5 °C 29.9in /  1011.1hPa NNW 1.1mph /  1.8km/h 6.3mph /  10.1km/h 98% 0.01in /  0.3mm
03:02 40.5 °F /  4.7 °C 39.9 °F /  4.4 °C 29.9in /  1011.1hPa Calm   6.3mph /  10.1km/h 98% 0.01in /  0.3mm
03:07 40.5 °F /  4.7 °C 39.9 °F /  4.4 °C 29.9in /  1012.1hPa NW 4.3mph /  6.9km/h 5.6mph /  9.0km/h 98% 0.01in /  0.3mm
03:12 40.5 °F /  4.7 °C 39.9 °F /  4.4 °C 29.9in /  1012.1hPa West 3.1mph /  5.0km/h 5.6mph /  9.0km/h 98% 0.01in /  0.3mm
03:17 40.5 °F /  4.7 °C 39.9 °F /  4.4 °C 29.9in /  1012.1hPa North 2.2mph /  3.5km/h 4.9mph /  7.9km/h 98% 0in /  0.0mm
03:22 40.3 °F /  4.6 °C 39.7 °F /  4.3 °C 29.9in /  1012.1hPa NNW 2.5mph /  4.0km/h 4.9mph /  7.9km/h 98% 0in /  0.0mm
03:27 40.3 °F /  4.6 °C 39.7 °F /  4.3 °C 29.9in /  1012.1hPa WNW 3.6mph /  5.8km/h 3.6mph /  5.8km/h 98% 0in /  0.0mm
03:32 40.1 °F /  4.5 °C 39.6 °F /  4.2 °C 29.9in /  1012.1hPa WNW 3.6mph /  5.8km/h 3.6mph /  5.8km/h 98% 0in /  0.0mm
03:37 40.1 °F /  4.5 °C 39.6 °F /  4.2 °C 29.9in /  1013.1hPa NNW 0.9mph /  1.4km/h 3.6mph /  5.8km/h 98% 0in /  0.0mm
03:42 40.1 °F /  4.5 °C 39.6 °F /  4.2 °C 29.9in /  1013.1hPa West 2.9mph /  4.7km/h 4.3mph /  6.9km/h 98% 0in /  0.0mm
03:47 39.9 °F /  4.4 °C 39.4 °F /  4.1 °C 29.9in /  1013.1hPa NW 1.3mph /  2.1km/h 4.3mph /  6.9km/h 98% 0in /  0.0mm
03:52 39.9 °F /  4.4 °C 39.4 °F /  4.1 °C 29.9in /  1013.1hPa WNW 0.9mph /  1.4km/h 3.1mph /  5.0km/h 98% 0in /  0.0mm
03:57 39.9 °F /  4.4 °C 39.4 °F /  4.1 °C 29.9in /  1013.1hPa North 0.9mph /  1.4km/h 4.7mph /  7.6km/h 98% 0in /  0.0mm
04:02 39.7 °F /  4.3 °C 39.2 °F /  4.0 °C 29.9in /  1013.1hPa NNW 4.7mph /  7.6km/h 4.7mph /  7.6km/h 98% 0in /  0.0mm
04:07 39.7 °F /  4.3 °C 39.2 °F /  4.0 °C 29.9in /  1013.1hPa NNW 4.7mph /  7.6km/h 4.7mph /  7.6km/h 98% 0in /  0.0mm
04:12 39.7 °F /  4.3 °C 39.2 °F /  4.0 °C 29.9in /  1013.1hPa NNW 3.6mph /  5.8km/h 4.7mph /  7.6km/h 98% 0in /  0.0mm
04:17 39.7 °F /  4.3 °C 39.2 °F /  4.0 °C 29.9in /  1013.1hPa NNW 5.6mph /  9.0km/h 5.6mph /  9.0km/h 98% 0in /  0.0mm
04:22 39.7 °F /  4.3 °C 39.2 °F /  4.0 °C 29.9in /  1013.1hPa West 1.3mph /  2.1km/h 5.6mph /  9.0km/h 98% 0in /  0.0mm
04:27 39.7 °F /  4.3 °C 39.2 °F /  4.0 °C 29.9in /  1013.1hPa WNW 1.6mph /  2.6km/h 5.6mph /  9.0km/h 98% 0in /  0.0mm
04:32 39.7 °F /  4.3 °C 39.2 °F /  4.0 °C 29.9in /  1013.1hPa NNW 4.9mph /  7.9km/h 4.9mph /  7.9km/h 98% 0in /  0.0mm
04:37 39.9 °F /  4.4 °C 39.4 °F /  4.1 °C 29.9in /  1014.1hPa North 1.1mph /  1.8km/h 4.9mph /  7.9km/h 98% 0in /  0.0mm
04:42 40.1 °F /  4.5 °C 39.6 °F /  4.2 °C 29.9in /  1014.1hPa NNW 0.9mph /  1.4km/h 4.9mph /  7.9km/h 98% 0in /  0.0mm
04:47 40.1 °F /  4.5 °C 39.6 °F /  4.2 °C 29.9in /  1014.1hPa North 4mph /  6.4km/h 4mph /  6.4km/h 98% 0in /  0.0mm
04:52 40.1 °F /  4.5 °C 39.6 °F /  4.2 °C 29.9in /  1014.1hPa Calm   4mph /  6.4km/h 98% 0in /  0.0mm
04:57 40.1 °F /  4.5 °C 39.6 °F /  4.2 °C 29.9in /  1014.1hPa WNW 1.6mph /  2.6km/h 4.7mph /  7.6km/h 98% 0in /  0.0mm
05:02 40.1 °F /  4.5 °C 39.6 °F /  4.2 °C 29.9in /  1014.1hPa NW 3.4mph /  5.5km/h 4.7mph /  7.6km/h 98% 0in /  0.0mm
05:03 40.1 °F /  4.5 °C 39.6 °F /  4.2 °C 29.9in /  1014.1hPa NW 3.4mph /  5.5km/h 4.7mph /  7.6km/h 98% 0in /  0.0mm
05:08 40.3 °F /  4.6 °C 39.7 °F /  4.3 °C 29.9in /  1014.1hPa North 1.6mph /  2.6km/h 6mph /  9.7km/h 98% 0in /  0.0mm
05:13 40.3 °F /  4.6 °C 39.7 °F /  4.3 °C 29.9in /  1014.1hPa NNW 1.6mph /  2.6km/h 6mph /  9.7km/h 98% 0in /  0.0mm
05:18 40.3 °F /  4.6 °C 39.7 °F /  4.3 °C 29.9in /  1014.1hPa NW 3.6mph /  5.8km/h 3.6mph /  5.8km/h 98% 0in /  0.0mm
05:23 40.3 °F /  4.6 °C 39.7 °F /  4.3 °C 29.9in /  1014.1hPa NNW 4.9mph /  7.9km/h 4.9mph /  7.9km/h 98% 0in /  0.0mm
05:28 40.3 °F /  4.6 °C 39.7 °F /  4.3 °C 29.9in /  1014.1hPa Calm   4.9mph /  7.9km/h 98% 0in /  0.0mm
05:38 40.3 °F /  4.6 °C 39.7 °F /  4.3 °C 30in /  1015.1hPa NW 1.1mph /  1.8km/h 1.1mph /  1.8km/h 98% 0in /  0.0mm
05:43 40.5 °F /  4.7 °C 39.9 °F /  4.4 °C 30in /  1015.1hPa NW 1.1mph /  1.8km/h 1.1mph /  1.8km/h 98% 0in /  0.0mm
05:48 40.5 °F /  4.7 °C 39.9 °F /  4.4 °C 30in /  1015.1hPa WNW 3.6mph /  5.8km/h 3.6mph /  5.8km/h 98% 0in /  0.0mm
05:53 40.5 °F /  4.7 °C 39.9 °F /  4.4 °C 30in /  1015.1hPa WNW 3.6mph /  5.8km/h 3.6mph /  5.8km/h 98% 0in /  0.0mm
05:58 40.5 °F /  4.7 °C 39.9 °F /  4.4 °C 30in /  1015.1hPa WNW 3.6mph /  5.8km/h 3.6mph /  5.8km/h 98% 0in /  0.0mm
06:03 40.6 °F /  4.8 °C 40.1 °F /  4.5 °C 30in /  1015.1hPa WNW 3.6mph /  5.8km/h 3.6mph /  5.8km/h 98% 0in /  0.0mm
06:08 40.6 °F /  4.8 °C 40.1 °F /  4.5 °C 30in /  1015.1hPa WNW 3.6mph /  5.8km/h 3.6mph /  5.8km/h 98% 0in /  0.0mm
06:13 40.8 °F /  4.9 °C 39.9 °F /  4.4 °C 30in /  1015.1hPa WNW 3.6mph /  5.8km/h 3.6mph /  5.8km/h 97% 0in /  0.0mm
06:18 40.8 °F /  4.9 °C 39.9 °F /  4.4 °C 30in /  1015.1hPa WNW 3.6mph /  5.8km/h 3.6mph /  5.8km/h 97% 0in /  0.0mm
06:23 40.6 °F /  4.8 °C 39.9 °F /  4.4 °C 29.9in /  1014.1hPa WNW 3.6mph /  5.8km/h 3.6mph /  5.8km/h 97% 0in /  0.0mm
06:28 40.6 °F /  4.8 °C 39.9 °F /  4.4 °C 29.9in /  1014.1hPa WNW 3.6mph /  5.8km/h 3.6mph /  5.8km/h 97% 0in /  0.0mm
06:33 40.5 °F /  4.7 °C 39.7 °F /  4.3 °C 29.9in /  1014.1hPa WNW 3.6mph /  5.8km/h 3.6mph /  5.8km/h 97% 0in /  0.0mm
06:38 40.5 °F /  4.7 °C 39.7 °F /  4.3 °C 30in /  1015.1hPa WNW 3.6mph /  5.8km/h 3.6mph /  5.8km/h 97% 0in /  0.0mm
06:43 40.5 °F /  4.7 °C 39.7 °F /  4.3 °C 30in /  1015.1hPa WNW 3.6mph /  5.8km/h 3.6mph /  5.8km/h 97% 0in /  0.0mm
06:48 40.5 °F /  4.7 °C 39.7 °F /  4.3 °C 30in /  1015.1hPa NNW 2.9mph /  4.7km/h 2.9mph /  4.7km/h 97% 0in /  0.0mm
06:53 40.5 °F /  4.7 °C 39.7 °F /  4.3 °C 30in /  1016.1hPa North 2mph /  3.2km/h 4mph /  6.4km/h 97% 0in /  0.0mm
06:58 40.6 °F /  4.8 °C 39.9 °F /  4.4 °C 30in /  1016.1hPa North 5.4mph /  8.7km/h 5.4mph /  8.7km/h 97% 0in /  0.0mm
07:03 40.6 °F /  4.8 °C 39.9 °F /  4.4 °C 30in /  1016.1hPa NNW 1.1mph /  1.8km/h 5.4mph /  8.7km/h 97% 0in /  0.0mm
07:08 40.8 °F /  4.9 °C 39.7 °F /  4.3 °C 30in /  1016.1hPa WNW 1.6mph /  2.6km/h 5.4mph /  8.7km/h 96% 0in /  0.0mm
07:13 40.8 °F /  4.9 °C 39.7 °F /  4.3 °C 30in /  1016.1hPa Calm   2mph /  3.2km/h 96% 0in /  0.0mm
07:18 40.6 °F /  4.8 °C 39.6 °F /  4.2 °C 30in /  1016.1hPa Calm   2mph /  3.2km/h 96% 0in /  0.0mm
07:23 40.6 °F /  4.8 °C 39.6 °F /  4.2 °C 30in /  1016.1hPa Calm     96% 0in /  0.0mm
07:28 40.6 °F /  4.8 °C 39.6 °F /  4.2 °C 30in /  1016.1hPa Calm     96% 0in /  0.0mm
07:33 40.6 °F /  4.8 °C 39.6 °F /  4.2 °C 30in /  1016.1hPa WNW 2.5mph /  4.0km/h 2.5mph /  4.0km/h 96% 0in /  0.0mm
07:38 40.6 °F /  4.8 °C 39.6 °F /  4.2 °C 30in /  1016.1hPa WNW 2.5mph /  4.0km/h 2.5mph /  4.0km/h 96% 0in /  0.0mm
07:43 40.5 °F /  4.7 °C 39.4 °F /  4.1 °C 30in /  1016.1hPa WNW 2.5mph /  4.0km/h 2.5mph /  4.0km/h 96% 0in /  0.0mm
07:48 40.5 °F /  4.7 °C 39.4 °F /  4.1 °C 30in /  1016.1hPa WNW 2.5mph /  4.0km/h 2.5mph /  4.0km/h 96% 0in /  0.0mm
07:53 40.1 °F /  4.5 °C 39 °F /  3.9 °C 30in /  1016.8hPa Calm   2.5mph /  4.0km/h 96% 0in /  0.0mm
07:58 39.7 °F /  4.3 °C 38.5 °F /  3.6 °C 30in /  1016.8hPa Calm     95% 0in /  0.0mm
08:03 39.6 °F /  4.2 °C 38.3 °F /  3.5 °C 30in /  1016.8hPa Calm     95% 0in /  0.0mm
08:08 39.4 °F /  4.1 °C 38.1 °F /  3.4 °C 30in /  1016.8hPa Calm     95% 0in /  0.0mm
08:13 39.4 °F /  4.1 °C 38.1 °F /  3.4 °C 30in /  1016.8hPa Calm   0.9mph /  1.4km/h 95% 0in /  0.0mm
08:18 39.4 °F /  4.1 °C 38.1 °F /  3.4 °C 30in /  1016.8hPa Calm   1.1mph /  1.8km/h 95% 0in /  0.0mm
08:23 39.4 °F /  4.1 °C 38.1 °F /  3.4 °C 30in /  1016.8hPa ENE 1.6mph /  2.6km/h 1.6mph /  2.6km/h 95% 0in /  0.0mm
08:28 38.1 °F /  3.4 °C 36.9 °F /  2.7 °C 30in /  1016.8hPa Calm   2.2mph /  3.5km/h 95% 0in /  0.0mm
08:33 37.9 °F /  3.3 °C 36.7 °F /  2.6 °C 30in /  1016.8hPa Calm   2.2mph /  3.5km/h 95% 0in /  0.0mm
08:38 37.6 °F /  3.1 °C 36.3 °F /  2.4 °C 30in /  1016.8hPa Calm     95% 0in /  0.0mm
08:43 37.6 °F /  3.1 °C 36.1 °F /  2.3 °C 30in /  1016.8hPa Calm     95% 0in /  0.0mm
08:48 37.6 °F /  3.1 °C 36.1 °F /  2.3 °C 30in /  1016.8hPa Calm     95% 0in /  0.0mm
08:53 37.6 °F /  3.1 °C 36.1 °F /  2.3 °C 30in /  1016.1hPa Calm     95% 0in /  0.0mm
08:58 37.2 °F /  2.9 °C 36.3 °F /  2.4 °C 30in /  1016.1hPa Calm   1.6mph /  2.6km/h 96% 0in /  0.0mm
09:03 37 °F /  2.8 °C 36.3 °F /  2.4 °C 30in /  1016.1hPa Calm   1.6mph /  2.6km/h 97% 0in /  0.0mm
09:08 37.2 °F /  2.9 °C 36.5 °F /  2.5 °C 30in /  1016.1hPa West 2mph /  3.2km/h 2.7mph /  4.3km/h 97% 0in /  0.0mm
09:13 37.2 °F /  2.9 °C 36.5 °F /  2.5 °C 30in /  1016.1hPa Calm   2.7mph /  4.3km/h 97% 0in /  0.0mm
09:18 37.6 °F /  3.1 °C 37 °F /  2.8 °C 30in /  1016.1hPa Calm   2mph /  3.2km/h 98% 0in /  0.0mm
09:23 37.8 °F /  3.2 °C 37.2 °F /  2.9 °C 30in /  1016.8hPa Calm   0.9mph /  1.4km/h 98% 0in /  0.0mm
09:28 38.1 °F /  3.4 °C 37.8 °F /  3.2 °C 30in /  1016.8hPa Calm     98% 0in /  0.0mm
09:33 38.7 °F /  3.7 °C 38.1 °F /  3.4 °C 30in /  1016.8hPa Calm     98% 0in /  0.0mm
09:38 39.2 °F /  4.0 °C 38.7 °F /  3.7 °C 30in /  1016.1hPa Calm     98% 0in /  0.0mm
09:43 39.7 °F /  4.3 °C 39.2 °F /  4.0 °C 30in /  1016.1hPa Calm     98% 0in /  0.0mm
09:48 40.3 °F /  4.6 °C 39.7 °F /  4.3 °C 30in /  1016.1hPa Calm   0.9mph /  1.4km/h 98% 0in /  0.0mm
09:53 40.5 °F /  4.7 °C 39.9 °F /  4.4 °C 30in /  1016.8hPa Calm   0.9mph /  1.4km/h 98% 0in /  0.0mm
09:58 40.5 °F /  4.7 °C 39.9 °F /  4.4 °C 30in /  1016.8hPa Calm     98% 0in /  0.0mm
10:03 40.8 °F /  4.9 °C 40.3 °F /  4.6 °C 30in /  1016.8hPa Calm     98% 0in /  0.0mm
10:08 41 °F /  5.0 °C 40.5 °F /  4.7 °C 30in /  1016.8hPa Calm     98% 0in /  0.0mm
10:13 41.4 °F /  5.2 °C 40.8 °F /  4.9 °C 30in /  1016.8hPa Calm     98% 0in /  0.0mm
10:18 41.5 °F /  5.3 °C 41 °F /  5.0 °C 30in /  1016.8hPa Calm     98% 0in /  0.0mm
10:23 41.5 °F /  5.3 °C 41 °F /  5.0 °C 30.1in /  1018.2hPa Calm     98% 0in /  0.0mm
10:28 41.7 °F /  5.4 °C 41.2 °F /  5.1 °C 30.1in /  1018.2hPa Calm     98% 0in /  0.0mm
10:33 41.9 °F /  5.5 °C 41.4 °F /  5.2 °C 30.1in /  1018.2hPa Calm     98% 0in /  0.0mm
10:38 42.1 °F /  5.6 °C 41.5 °F /  5.3 °C 30.1in /  1018.2hPa Calm     98% 0in /  0.0mm
10:43 42.1 °F /  5.6 °C 41.4 °F /  5.2 °C 30.1in /  1018.2hPa Calm     97% 0in /  0.0mm
10:48 42.1 °F /  5.6 °C 41.4 °F /  5.2 °C 30.1in /  1018.2hPa Calm     97% 0in /  0.0mm
10:53 42.3 °F /  5.7 °C 41.4 °F /  5.2 °C 30.1in /  1018.2hPa Calm     97% 0in /  0.0mm
10:58 42.4 °F /  5.8 °C 41.5 °F /  5.3 °C 30.1in /  1018.2hPa Calm     97% 0in /  0.0mm
11:03 42.4 °F /  5.8 °C 41.9 °F /  5.5 °C 30.1in /  1018.2hPa Calm   2mph /  3.2km/h 98% 0in /  0.0mm
11:08 42.6 °F /  5.9 °C 41.7 °F /  5.4 °C 30.1in /  1018.2hPa Calm   2mph /  3.2km/h 97% 0in /  0.0mm
11:13 42.6 °F /  5.9 °C 41.7 °F /  5.4 °C 30.1in /  1018.2hPa Calm     97% 0in /  0.0mm
11:18 42.8 °F /  6.0 °C 42.1 °F /  5.6 °C 30.1in /  1018.2hPa Calm     97% 0in /  0.0mm
11:23 42.8 °F /  6.0 °C 42.1 °F /  5.6 °C 30.1in /  1018.8hPa Calm     97% 0in /  0.0mm
11:28 42.8 °F /  6.0 °C 42.1 °F /  5.6 °C 30.1in /  1018.8hPa Calm     97% 0in /  0.0mm
11:33 42.8 °F /  6.0 °C 42.1 °F /  5.6 °C 30.1in /  1018.8hPa Calm     97% 0in /  0.0mm
11:38 42.8 °F /  6.0 °C 42.1 °F /  5.6 °C 30.1in /  1018.8hPa Calm     97% 0in /  0.0mm
11:43 42.8 °F /  6.0 °C 42.1 °F /  5.6 °C 30.1in /  1018.8hPa Calm     97% 0in /  0.0mm
11:48 43 °F /  6.1 °C 42.1 °F /  5.6 °C 30.1in /  1018.8hPa Calm     97% 0in /  0.0mm
11:53 43 °F /  6.1 °C 42.1 °F /  5.6 °C 30.1in /  1018.8hPa Calm     97% 0in /  0.0mm
11:58 43.2 °F /  6.2 °C 42.3 °F /  5.7 °C 30.1in /  1018.8hPa Calm     97% 0in /  0.0mm
12:03 43.2 °F /  6.2 °C 42.3 °F /  5.7 °C 30.1in /  1018.8hPa Calm     97% 0in /  0.0mm
12:08 43.3 °F /  6.3 °C 42.4 °F /  5.8 °C 30.1in /  1018.8hPa Calm     97% 0in /  0.0mm
12:13 43.3 °F /  6.3 °C 42.4 °F /  5.8 °C 30.1in /  1018.8hPa Calm     97% 0in /  0.0mm
12:18 43.5 °F /  6.4 °C 42.6 °F /  5.9 °C 30.1in /  1018.8hPa Calm     97% 0in /  0.0mm
12:23 43.5 °F /  6.4 °C 42.6 °F /  5.9 °C 30.1in /  1018.8hPa Calm     97% 0in /  0.0mm
12:28 43.5 °F /  6.4 °C 42.8 °F /  6.0 °C 30.1in /  1018.8hPa Calm     97% 0in /  0.0mm
12:33 43.9 °F /  6.6 °C 43 °F /  6.1 °C 30.1in /  1018.8hPa Calm     97% 0in /  0.0mm
12:38 44.1 °F /  6.7 °C 43.2 °F /  6.2 °C 30.1in /  1018.8hPa Calm     97% 0in /  0.0mm
12:43 44.1 °F /  6.7 °C 43.2 °F /  6.2 °C 30.1in /  1018.8hPa SSE 1.1mph /  1.8km/h 3.1mph /  5.0km/h 97% 0in /  0.0mm
12:48 44.2 °F /  6.8 °C 43.5 °F /  6.4 °C 30.1in /  1018.8hPa Calm   3.1mph /  5.0km/h 97% 0in /  0.0mm
12:53 44.4 °F /  6.9 °C 43.7 °F /  6.5 °C 30.1in /  1018.8hPa Calm   1.3mph /  2.1km/h 97% 0in /  0.0mm
12:58 44.8 °F /  7.1 °C 43.9 °F /  6.6 °C 30.1in /  1018.8hPa Calm   1.1mph /  1.8km/h 97% 0in /  0.0mm
13:03 45.1 °F /  7.3 °C 44.2 °F /  6.8 °C 30.1in /  1018.8hPa Calm   2.5mph /  4.0km/h 97% 0in /  0.0mm
13:08 45.3 °F /  7.4 °C 44.6 °F /  7.0 °C 30.1in /  1018.2hPa SW 3.4mph /  5.5km/h 3.4mph /  5.5km/h 97% 0in /  0.0mm
13:13 45.9 °F /  7.7 °C 45.1 °F /  7.3 °C 30.1in /  1018.2hPa WSW 3.1mph /  5.0km/h 4.3mph /  6.9km/h 97% 0in /  0.0mm
13:18 46.2 °F /  7.9 °C 45.5 °F /  7.5 °C 30.1in /  1018.2hPa WSW 2.5mph /  4.0km/h 4.3mph /  6.9km/h 97% 0in /  0.0mm
13:23 46.6 °F /  8.1 °C 45.3 °F /  7.4 °C 30.1in /  1018.2hPa Calm   2.9mph /  4.7km/h 96% 0in /  0.0mm
13:28 46.6 °F /  8.1 °C 45.7 °F /  7.6 °C 30.1in /  1018.2hPa SW 1.1mph /  1.8km/h 2.9mph /  4.7km/h 96% 0in /  0.0mm
13:33 46.8 °F /  8.2 °C 45.7 °F /  7.6 °C 30.1in /  1018.2hPa Calm   2.9mph /  4.7km/h 96% 0in /  0.0mm
13:38 46.9 °F /  8.3 °C 45.9 °F /  7.7 °C 30.1in /  1018.2hPa Calm   2.5mph /  4.0km/h 96% 0in /  0.0mm
13:43 47.1 °F /  8.4 °C 46 °F /  7.8 °C 30.1in /  1018.2hPa SSW 1.1mph /  1.8km/h 2.7mph /  4.3km/h 96% 0in /  0.0mm
13:48 47.1 °F /  8.4 °C 46 °F /  7.8 °C 30.1in /  1018.2hPa WSW 2.7mph /  4.3km/h 3.1mph /  5.0km/h 96% 0in /  0.0mm
13:53 47.1 °F /  8.4 °C 46 °F /  7.8 °C 30.1in /  1018.2hPa SW 2.5mph /  4.0km/h 3.4mph /  5.5km/h 96% 0in /  0.0mm
13:58 47.1 °F /  8.4 °C 46 °F /  7.8 °C 30.1in /  1018.2hPa Calm   3.6mph /  5.8km/h 96% 0in /  0.0mm
14:03 47.5 °F /  8.6 °C 46.4 °F /  8.0 °C 30.1in /  1018.2hPa Calm   3.6mph /  5.8km/h 96% 0in /  0.0mm
14:08 47.5 °F /  8.6 °C 46.4 °F /  8.0 °C 30.1in /  1018.2hPa WSW 3.1mph /  5.0km/h 4.3mph /  6.9km/h 96% 0in /  0.0mm
14:13 48.2 °F /  9.0 °C 46.9 °F /  8.3 °C 30.1in /  1018.2hPa SW 2.5mph /  4.0km/h 4.3mph /  6.9km/h 95% 0in /  0.0mm
14:18 48 °F /  8.9 °C 46.8 °F /  8.2 °C 30.1in /  1018.2hPa West 3.6mph /  5.8km/h 4.7mph /  7.6km/h 95% 0in /  0.0mm
14:23 47.7 °F /  8.7 °C 46.2 °F /  7.9 °C 30.1in /  1018.2hPa West 4.7mph /  7.6km/h 6.7mph /  10.8km/h 95% 0in /  0.0mm
14:28 47.5 °F /  8.6 °C 46.2 °F /  7.9 °C 30.1in /  1018.2hPa WSW 4mph /  6.4km/h 6.7mph /  10.8km/h 95% 0in /  0.0mm
14:33 48.2 °F /  9.0 °C 46.6 °F /  8.1 °C 30.1in /  1018.2hPa WSW 4.9mph /  7.9km/h 5.4mph /  8.7km/h 94% 0in /  0.0mm
14:38 48 °F /  8.9 °C 46 °F /  7.8 °C 30.1in /  1018.2hPa West 6mph /  9.7km/h 6mph /  9.7km/h 93% 0in /  0.0mm
14:43 48.2 °F /  9.0 °C 46 °F /  7.8 °C 30.1in /  1018.2hPa WSW 4.3mph /  6.9km/h 7.8mph /  12.6km/h 92% 0in /  0.0mm
14:48 47.7 °F /  8.7 °C 44.6 °F /  7.0 °C 30.1in /  1018.2hPa West 4.9mph /  7.9km/h 7.8mph /  12.6km/h 89% 0in /  0.0mm
14:53 48.2 °F /  9.0 °C 44.4 °F /  6.9 °C 30in /  1016.8hPa WSW 3.8mph /  6.1km/h 8.1mph /  13.0km/h 87% 0in /  0.0mm
14:58 48.7 °F /  9.3 °C 45.1 °F /  7.3 °C 30in /  1016.8hPa WSW 5.4mph /  8.7km/h 8.1mph /  13.0km/h 87% 0in /  0.0mm
15:03 49.5 °F /  9.7 °C 46 °F /  7.8 °C 30in /  1016.8hPa West 5.6mph /  9.0km/h 6mph /  9.7km/h 88% 0in /  0.0mm
15:08 49.1 °F /  9.5 °C 44.8 °F /  7.1 °C 30.1in /  1018.2hPa WSW 5.4mph /  8.7km/h 7.4mph /  11.9km/h 85% 0in /  0.0mm
15:13 49.1 °F /  9.5 °C 44.2 °F /  6.8 °C 30.1in /  1018.2hPa WSW 4.9mph /  7.9km/h 7.4mph /  11.9km/h 83% 0in /  0.0mm
15:18 48.4 °F /  9.1 °C 43.5 °F /  6.4 °C 30.1in /  1018.2hPa West 4.7mph /  7.6km/h 6.7mph /  10.8km/h 83% 0in /  0.0mm
15:23 48 °F /  8.9 °C 42.4 °F /  5.8 °C 30.1in /  1018.2hPa West 6mph /  9.7km/h 6.7mph /  10.8km/h 81% 0in /  0.0mm
15:28 48.2 °F /  9.0 °C 43 °F /  6.1 °C 30.1in /  1018.2hPa WSW 4.7mph /  7.6km/h 7.4mph /  11.9km/h 82% 0in /  0.0mm
15:33 48 °F /  8.9 °C 42.8 °F /  6.0 °C 30.1in /  1018.2hPa WSW 4.9mph /  7.9km/h 7.4mph /  11.9km/h 82% 0in /  0.0mm
15:38 48.6 °F /  9.2 °C 43.7 °F /  6.5 °C 30.1in /  1018.2hPa West 4mph /  6.4km/h 6.5mph /  10.5km/h 83% 0in /  0.0mm
15:43 48.9 °F /  9.4 °C 44.1 °F /  6.7 °C 30.1in /  1018.2hPa Calm   5.4mph /  8.7km/h 83% 0in /  0.0mm
15:48 49.5 °F /  9.7 °C 44.4 °F /  6.9 °C 30.1in /  1018.2hPa SW 2mph /  3.2km/h 4.9mph /  7.9km/h 83% 0in /  0.0mm
15:53 49.5 °F /  9.7 °C 44.4 °F /  6.9 °C 30.1in /  1018.2hPa SW 2.9mph /  4.7km/h 5.6mph /  9.0km/h 83% 0in /  0.0mm
15:58 48.9 °F /  9.4 °C 43.7 °F /  6.5 °C 30.1in /  1018.2hPa West 3.1mph /  5.0km/h 5.6mph /  9.0km/h 82% 0in /  0.0mm
16:03 48.4 °F /  9.1 °C 43.2 °F /  6.2 °C 30.1in /  1018.2hPa WSW 3.4mph /  5.5km/h 5.4mph /  8.7km/h 82% 0in /  0.0mm
16:08 47.7 °F /  8.7 °C 42.4 °F /  5.8 °C 30.1in /  1018.2hPa West 4.9mph /  7.9km/h 5.4mph /  8.7km/h 82% 0in /  0.0mm
16:13 47.3 °F /  8.5 °C 42.1 °F /  5.6 °C 30.1in /  1018.2hPa West 3.6mph /  5.8km/h 5.4mph /  8.7km/h 82% 0in /  0.0mm
16:18 46.9 °F /  8.3 °C 42.1 °F /  5.6 °C 30.1in /  1018.2hPa WSW 2.9mph /  4.7km/h 4.9mph /  7.9km/h 83% 0in /  0.0mm
16:23 46.8 °F /  8.2 °C 41.9 °F /  5.5 °C 30.1in /  1018.2hPa WSW 3.6mph /  5.8km/h 4.3mph /  6.9km/h 83% 0in /  0.0mm
16:28 46.6 °F /  8.1 °C 42.1 °F /  5.6 °C 30.1in /  1018.2hPa WSW 2.5mph /  4.0km/h 4.3mph /  6.9km/h 84% 0in /  0.0mm
16:33 46.6 °F /  8.1 °C 41.9 °F /  5.5 °C 30.1in /  1018.2hPa West 2.9mph /  4.7km/h 3.8mph /  6.1km/h 84% 0in /  0.0mm
16:38 46.2 °F /  7.9 °C 42.1 °F /  5.6 °C 30.1in /  1018.2hPa Calm   3.6mph /  5.8km/h 85% 0in /  0.0mm
16:43 46 °F /  7.8 °C 41.9 °F /  5.5 °C 30.1in /  1018.2hPa WSW 2.7mph /  4.3km/h 4mph /  6.4km/h 85% 0in /  0.0mm
16:48 45.9 °F /  7.7 °C 42.1 °F /  5.6 °C 30.1in /  1018.2hPa West 4.3mph /  6.9km/h 4.3mph /  6.9km/h 86% 0in /  0.0mm
16:53 45.9 °F /  7.7 °C 42.1 °F /  5.6 °C 30.1in /  1018.2hPa Calm   4.3mph /  6.9km/h 86% 0in /  0.0mm
16:58 45.9 °F /  7.7 °C 42.1 °F /  5.6 °C 30.1in /  1018.2hPa Calm   3.8mph /  6.1km/h 87% 0in /  0.0mm
17:03 45.9 °F /  7.7 °C 42.1 °F /  5.6 °C 30.1in /  1018.2hPa Calm     87% 0in /  0.0mm
17:08 45.7 °F /  7.6 °C 42.3 °F /  5.7 °C 30.1in /  1018.2hPa Calm     88% 0in /  0.0mm
17:13 45.7 °F /  7.6 °C 42.3 °F /  5.7 °C 30.1in /  1018.2hPa Calm     88% 0in /  0.0mm
17:18 45.3 °F /  7.4 °C 42.4 °F /  5.8 °C 30.1in /  1018.2hPa Calm     89% 0in /  0.0mm
17:23 45.1 °F /  7.3 °C 42.3 °F /  5.7 °C 30.1in /  1018.2hPa Calm     89% 0in /  0.0mm
17:28 45.1 °F /  7.3 °C 42.3 °F /  5.7 °C 30.1in /  1018.2hPa Calm     89% 0in /  0.0mm
17:33 45.1 °F /  7.3 °C 42.1 °F /  5.6 °C 30.1in /  1018.2hPa Calm     89% 0in /  0.0mm
17:38 45 °F /  7.2 °C 42.1 °F /  5.6 °C 30.1in /  1018.2hPa Calm     90% 0in /  0.0mm
17:43 44.8 °F /  7.1 °C 41.9 °F /  5.5 °C 30.1in /  1018.2hPa Calm     90% 0in /  0.0mm
17:48 44.4 °F /  6.9 °C 41.7 °F /  5.4 °C 30.1in /  1018.2hPa Calm     90% 0in /  0.0mm
17:53 44.4 °F /  6.9 °C 41.7 °F /  5.4 °C 30.1in /  1018.2hPa Calm     90% 0in /  0.0mm
17:58 44.4 °F /  6.9 °C 42.1 °F /  5.6 °C 30.1in /  1018.2hPa Calm     91% 0in /  0.0mm
18:03 44.2 °F /  6.8 °C 41.9 °F /  5.5 °C 30.1in /  1018.2hPa Calm     91% 0in /  0.0mm
18:08 44.2 °F /  6.8 °C 41.9 °F /  5.5 °C 30.1in /  1018.2hPa Calm     91% 0in /  0.0mm
18:09 44.2 °F /  6.8 °C 41.9 °F /  5.5 °C 30.1in /  1018.2hPa Calm     91% 0in /  0.0mm
18:14 44.1 °F /  6.7 °C 41.7 °F /  5.4 °C 30.1in /  1018.2hPa Calm     92% 0in /  0.0mm
18:19 44.1 °F /  6.7 °C 41.7 °F /  5.4 °C 30.1in /  1018.2hPa Calm     92% 0in /  0.0mm
18:24 44.1 °F /  6.7 °C 41.7 °F /  5.4 °C 30.1in /  1018.2hPa Calm     92% 0in /  0.0mm
18:29 43.9 °F /  6.6 °C 41.9 °F /  5.5 °C 30.1in /  1018.2hPa Calm     93% 0in /  0.0mm
18:34 43.9 °F /  6.6 °C 41.9 °F /  5.5 °C 30.1in /  1018.2hPa Calm   0.9mph /  1.4km/h 93% 0in /  0.0mm
18:39 43.9 °F /  6.6 °C 41.9 °F /  5.5 °C 30.1in /  1018.2hPa Calm   1.1mph /  1.8km/h 93% 0in /  0.0mm
18:44 43.5 °F /  6.4 °C 41.7 °F /  5.4 °C 30.1in /  1018.2hPa Calm   1.1mph /  1.8km/h 93% 0in /  0.0mm
18:49 43.5 °F /  6.4 °C 41.7 °F /  5.4 °C 30.1in /  1018.2hPa Calm     93% 0in /  0.0mm
18:54 43.5 °F /  6.4 °C 41.5 °F /  5.3 °C 30.1in /  1018.2hPa Calm     93% 0in /  0.0mm
18:59 43.3 °F /  6.3 °C 41.4 °F /  5.2 °C 30.1in /  1018.2hPa Calm     93% 0in /  0.0mm
19:04 43.3 °F /  6.3 °C 41.4 °F /  5.2 °C 30.1in /  1018.2hPa Calm     93% 0in /  0.0mm
19:09 43.2 °F /  6.2 °C 41.2 °F /  5.1 °C 30.1in /  1018.2hPa Calm     93% 0in /  0.0mm
19:14 43.2 °F /  6.2 °C 41.2 °F /  5.1 °C 30.1in /  1018.2hPa Calm     93% 0in /  0.0mm
19:19 43.2 °F /  6.2 °C 41.5 °F /  5.3 °C 30.1in /  1018.2hPa Calm     94% 0in /  0.0mm
19:24 43 °F /  6.1 °C 41.4 °F /  5.2 °C 30.1in /  1018.2hPa Calm     94% 0in /  0.0mm
19:29 42.8 °F /  6.0 °C 41.2 °F /  5.1 °C 30.1in /  1018.2hPa ESE 1.1mph /  1.8km/h 2mph /  3.2km/h 94% 0in /  0.0mm
19:34 42.8 °F /  6.0 °C 41.2 °F /  5.1 °C 30.1in /  1018.2hPa Calm   2mph /  3.2km/h 94% 0in /  0.0mm
19:39 42.8 °F /  6.0 °C 41.2 °F /  5.1 °C 30.1in /  1018.2hPa Calm   1.6mph /  2.6km/h 94% 0in /  0.0mm
19:44 42.6 °F /  5.9 °C 41 °F /  5.0 °C 30.1in /  1018.2hPa Calm   0.9mph /  1.4km/h 94% 0in /  0.0mm
19:49 42.6 °F /  5.9 °C 41 °F /  5.0 °C 30.1in /  1018.2hPa Calm   0.9mph /  1.4km/h 94% 0in /  0.0mm
19:54 42.4 °F /  5.8 °C 41.2 °F /  5.1 °C 30.1in /  1018.2hPa Calm   0.9mph /  1.4km/h 95% 0in /  0.0mm
19:55 42.4 °F /  5.8 °C 41.2 °F /  5.1 °C 30.1in /  1018.2hPa Calm   0.9mph /  1.4km/h 95% 0in /  0.0mm
20:00 42.3 °F /  5.7 °C 40.8 °F /  4.9 °C 30.1in /  1018.2hPa Calm     95% 0in /  0.0mm
20:05 42.3 °F /  5.7 °C 40.8 °F /  4.9 °C 30.1in /  1018.2hPa Calm     95% 0in /  0.0mm
20:10 42.3 °F /  5.7 °C 40.8 °F /  4.9 °C 30.1in /  1018.2hPa Calm     95% 0in /  0.0mm
20:15 42.3 °F /  5.7 °C 40.8 °F /  4.9 °C 30.1in /  1018.2hPa Calm     95% 0in /  0.0mm
20:20 42.1 °F /  5.6 °C 40.6 °F /  4.8 °C 30.1in /  1018.2hPa Calm     95% 0in /  0.0mm
20:25 42.1 °F /  5.6 °C 40.6 °F /  4.8 °C 30.1in /  1018.2hPa Calm     95% 0in /  0.0mm
20:30 42.1 °F /  5.6 °C 40.6 °F /  4.8 °C 30.1in /  1018.2hPa Calm     95% 0in /  0.0mm
20:35 42.1 °F /  5.6 °C 40.6 °F /  4.8 °C 30.1in /  1018.2hPa Calm   1.3mph /  2.1km/h 95% 0in /  0.0mm
20:40 42.1 °F /  5.6 °C 40.6 °F /  4.8 °C 30in /  1016.8hPa Calm   1.3mph /  2.1km/h 95% 0in /  0.0mm
20:45 42.1 °F /  5.6 °C 40.6 °F /  4.8 °C 30in /  1016.8hPa Calm   0.9mph /  1.4km/h 95% 0in /  0.0mm
20:50 41.9 °F /  5.5 °C 40.6 °F /  4.8 °C 30in /  1016.8hPa Calm     95% 0in /  0.0mm
20:55 41.9 °F /  5.5 °C 40.6 °F /  4.8 °C 30in /  1016.8hPa Calm     95% 0in /  0.0mm
21:00 41.9 °F /  5.5 °C 40.6 °F /  4.8 °C 30in /  1016.8hPa Calm     95% 0in /  0.0mm
21:05 41.9 °F /  5.5 °C 40.6 °F /  4.8 °C 30in /  1016.8hPa Calm     95% 0in /  0.0mm
21:10 41.9 °F /  5.5 °C 40.6 °F /  4.8 °C 30in /  1016.8hPa SE 1.1mph /  1.8km/h 1.1mph /  1.8km/h 95% 0in /  0.0mm
21:15 41.9 °F /  5.5 °C 40.6 °F /  4.8 °C 30in /  1016.8hPa Calm   2.7mph /  4.3km/h 95% 0in /  0.0mm
21:20 41.9 °F /  5.5 °C 40.6 °F /  4.8 °C 30in /  1016.8hPa Calm   2.9mph /  4.7km/h 95% 0in /  0.0mm
21:25 42.1 °F /  5.6 °C 40.6 °F /  4.8 °C 30in /  1016.1hPa Calm   3.1mph /  5.0km/h 95% 0in /  0.0mm
21:30 42.1 °F /  5.6 °C 40.6 °F /  4.8 °C 30in /  1016.1hPa Calm   3.1mph /  5.0km/h 95% 0in /  0.0mm
21:35 42.1 °F /  5.6 °C 40.6 °F /  4.8 °C 30in /  1016.1hPa SE 1.3mph /  2.1km/h 3.1mph /  5.0km/h 95% 0in /  0.0mm
21:40 42.1 °F /  5.6 °C 40.6 °F /  4.8 °C 30in /  1016.8hPa Calm   3.6mph /  5.8km/h 95% 0in /  0.0mm
21:45 42.1 °F /  5.6 °C 40.6 °F /  4.8 °C 30in /  1016.8hPa Calm   4.5mph /  7.2km/h 95% 0in /  0.0mm
21:50 42.1 °F /  5.6 °C 40.6 °F /  4.8 °C 30in /  1016.8hPa Calm   4.5mph /  7.2km/h 95% 0in /  0.0mm
21:55 42.1 °F /  5.6 °C 40.6 °F /  4.8 °C 30in /  1016.8hPa SSE 2.5mph /  4.0km/h 2.9mph /  4.7km/h 95% 0in /  0.0mm
22:00 42.1 °F /  5.6 °C 40.6 °F /  4.8 °C 30in /  1016.8hPa Calm   2.7mph /  4.3km/h 95% 0in /  0.0mm
22:05 42.1 °F /  5.6 °C 40.6 °F /  4.8 °C 30in /  1016.8hPa SE 1.3mph /  2.1km/h 2.7mph /  4.3km/h 95% 0in /  0.0mm
22:10 42.1 °F /  5.6 °C 40.6 °F /  4.8 °C 30in /  1016.8hPa SSE 1.3mph /  2.1km/h 2.9mph /  4.7km/h 95% 0in /  0.0mm
22:15 42.1 °F /  5.6 °C 40.6 °F /  4.8 °C 30in /  1016.8hPa SSE 1.6mph /  2.6km/h 2.9mph /  4.7km/h 95% 0in /  0.0mm
22:20 42.1 °F /  5.6 °C 40.6 °F /  4.8 °C 30in /  1016.8hPa SSE 2mph /  3.2km/h 2.9mph /  4.7km/h 95% 0in /  0.0mm
22:25 42.3 °F /  5.7 °C 40.8 °F /  4.9 °C 30in /  1016.8hPa SSE 2.5mph /  4.0km/h 4mph /  6.4km/h 95% 0in /  0.0mm
22:30 42.3 °F /  5.7 °C 40.8 °F /  4.9 °C 30in /  1016.8hPa Calm   4mph /  6.4km/h 95% 0in /  0.0mm
22:35 42.3 °F /  5.7 °C 40.8 °F /  4.9 °C 30in /  1016.8hPa SSE 0.9mph /  1.4km/h 3.4mph /  5.5km/h 95% 0in /  0.0mm
22:40 42.3 °F /  5.7 °C 40.8 °F /  4.9 °C 30in /  1016.8hPa SSE 3.1mph /  5.0km/h 3.4mph /  5.5km/h 95% 0in /  0.0mm
22:45 42.3 °F /  5.7 °C 40.8 °F /  4.9 °C 30in /  1016.8hPa South 2.7mph /  4.3km/h 3.8mph /  6.1km/h 95% 0in /  0.0mm
22:50 42.3 °F /  5.7 °C 40.8 °F /  4.9 °C 30in /  1016.8hPa SSE 2mph /  3.2km/h 3.8mph /  6.1km/h 95% 0in /  0.0mm
22:55 42.3 °F /  5.7 °C 40.8 °F /  4.9 °C 30in /  1016.8hPa SSE 2.7mph /  4.3km/h 3.6mph /  5.8km/h 95% 0in /  0.0mm
23:00 42.3 °F /  5.7 °C 40.8 °F /  4.9 °C 30in /  1016.8hPa SSE 3.4mph /  5.5km/h 5.8mph /  9.3km/h 95% 0in /  0.0mm
23:05 42.3 °F /  5.7 °C 40.8 °F /  4.9 °C 30in /  1016.8hPa Calm   5.8mph /  9.3km/h 95% 0in /  0.0mm
23:10 42.4 °F /  5.8 °C 41.2 °F /  5.1 °C 30in /  1016.1hPa SSE 2.7mph /  4.3km/h 5.4mph /  8.7km/h 95% 0in /  0.0mm
23:15 42.4 °F /  5.8 °C 40.8 °F /  4.9 °C 30in /  1016.1hPa Calm   4.9mph /  7.9km/h 94% 0in /  0.0mm
23:20 42.4 °F /  5.8 °C 40.8 °F /  4.9 °C 30in /  1016.1hPa SE 3.6mph /  5.8km/h 4.9mph /  7.9km/h 94% 0in /  0.0mm
23:25 42.4 °F /  5.8 °C 40.8 °F /  4.9 °C 30in /  1015.1hPa SSE 3.8mph /  6.1km/h 4.9mph /  7.9km/h 94% 0in /  0.0mm
23:29 42.4 °F /  5.8 °C 40.8 °F /  4.9 °C 30in /  1015.1hPa SSE 3.4mph /  5.5km/h 6.5mph /  10.5km/h 94% 0in /  0.0mm
23:34 42.4 °F /  5.8 °C 40.8 °F /  4.9 °C 30in /  1015.1hPa SE 2.7mph /  4.3km/h 6.5mph /  10.5km/h 94% 0in /  0.0mm
23:39 42.4 °F /  5.8 °C 40.8 °F /  4.9 °C 30in /  1015.1hPa SE 4.9mph /  7.9km/h 5.4mph /  8.7km/h 94% 0in /  0.0mm
23:44 42.4 °F /  5.8 °C 40.5 °F /  4.7 °C 30in /  1015.1hPa SE 4mph /  6.4km/h 6mph /  9.7km/h 93% 0in /  0.0mm
23:49 42.4 °F /  5.8 °C 40.5 °F /  4.7 °C 30in /  1015.1hPa SSE 3.4mph /  5.5km/h 6mph /  9.7km/h 93% 0in /  0.0mm
23:54 42.4 °F /  5.8 °C 40.5 °F /  4.7 °C 30in /  1015.1hPa SE 3.8mph /  6.1km/h 6.3mph /  10.1km/h 93% 0in /  0.0mm
Données Historique de Météo Turbie

Mise a jour : 22/05/2018 21:36:12
Généré par Cumulus 1.9.4 (1099)